Time;durP1;ratioP1;P1;durP2;ratioP2;P2;SDS_P1;SDS_P2;PMS_P1;PMS_P2;Temp;Humidity;BMP_temperature;BMP_pressure;BME280_temperature;BME280_humidity;BME280_pressure;Samples;Min_cycle;Max_cycle;Signal;HPM_P1;HPM_P2
2022/07/24 00:00:42;;;;;;;1999.90;999.90;;;;;;;17.83;74.92;99613.97;8299681;28;20309;-76
2022/07/24 00:04:43;;;;;;;1999.90;999.90;;;;;;;17.65;74.96;99615.34;8277657;28;20037;-76
2022/07/24 00:08:45;;;;;;;1999.90;999.90;;;;;;;17.58;75.42;99616.41;8318725;28;20690;-76
2022/07/24 00:12:46;;;;;;;1999.90;999.90;;;;;;;17.63;75.94;99614.53;8302574;28;20045;-76
2022/07/24 00:16:48;;;;;;;1999.90;999.90;;;;;;;17.64;76.56;99616.25;8280832;28;20087;-76
2022/07/24 00:20:50;;;;;;;1999.90;999.90;;;;;;;17.56;76.88;99618.22;8321081;28;20073;-76
2022/07/24 00:24:51;;;;;;;1999.90;999.90;;;;;;;17.55;76.59;99611.25;8321535;28;20454;-76
2022/07/24 00:28:53;;;;;;;1999.90;999.90;;;;;;;17.42;75.86;99613.41;8306530;28;20046;-76
2022/07/24 00:32:54;;;;;;;1999.90;999.90;;;;;;;17.34;76.52;99613.59;8315448;28;20056;-76
2022/07/24 00:36:56;;;;;;;1999.90;999.90;;;;;;;17.34;76.59;99615.38;8301961;28;20037;-76
2022/07/24 00:40:58;;;;;;;1999.90;999.90;;;;;;;17.36;77.31;99617.03;8328816;28;20128;-78
2022/07/24 00:44:59;;;;;;;1999.90;999.90;;;;;;;17.33;77.30;99614.50;8334559;28;20323;-78
2022/07/24 00:49:04;;;;;;;1999.90;999.90;;;;;;;17.27;77.86;99616.47;8314717;28;20144;-78
2022/07/24 00:53:18;;;;;;;1999.90;999.90;;;;;;;17.17;78.69;99619.31;8318819;28;20051;-77
2022/07/24 00:57:19;;;;;;;1999.90;999.90;;;;;;;17.16;79.08;99617.59;8312664;28;20127;-77
2022/07/24 01:01:22;;;;;;;1999.90;999.90;;;;;;;17.15;79.38;99623.75;8326970;28;20128;-77
2022/07/24 01:05:24;;;;;;;1999.90;999.90;;;;;;;17.10;80.29;99615.16;8301262;28;20041;-77
2022/07/24 01:09:25;;;;;;;1999.90;999.90;;;;;;;17.02;79.85;99619.72;8325000;28;20128;-77
2022/07/24 01:13:28;;;;;;;1999.90;999.90;;;;;;;16.92;80.22;99621.75;8333605;28;20312;-77
2022/07/24 01:17:32;;;;;;;1999.90;999.90;;;;;;;16.84;80.58;99620.22;8329376;28;20066;-77
2022/07/24 01:21:33;;;;;;;1999.90;999.90;;;;;;;16.82;80.76;99617.63;8309288;28;20055;-77
2022/07/24 01:25:35;;;;;;;1999.90;999.90;;;;;;;16.82;81.28;99616.78;8296012;28;20044;-77
2022/07/24 01:29:37;;;;;;;1999.90;999.90;;;;;;;16.76;80.88;99620.44;8303846;28;20504;-77
2022/07/24 01:33:38;;;;;;;1999.90;999.90;;;;;;;16.72;80.99;99620.56;8317779;28;20048;-77
2022/07/24 01:37:40;;;;;;;1999.90;999.90;;;;;;;16.66;81.36;99618.91;8321132;28;20131;-78
2022/07/24 01:41:41;;;;;;;1999.90;999.90;;;;;;;16.57;81.63;99613.91;8309890;28;20080;-78
2022/07/24 01:45:43;;;;;;;1999.90;999.90;;;;;;;16.57;82.37;99611.28;8293867;28;20140;-77
2022/07/24 01:49:44;;;;;;;1999.90;999.90;;;;;;;16.51;81.98;99621.91;8320610;28;20426;-77
2022/07/24 01:53:46;;;;;;;1999.90;999.90;;;;;;;16.50;81.77;99614.94;8283444;28;20152;-78
2022/07/24 01:57:48;;;;;;;1999.90;999.90;;;;;;;16.43;81.66;99621.25;8293252;28;20613;-77
2022/07/24 02:01:50;;;;;;;1999.90;999.90;;;;;;;16.32;82.05;99618.88;8309981;28;20049;-77
2022/07/24 02:05:53;;;;;;;1999.90;999.90;;;;;;;16.33;82.33;99608.34;8324415;28;20048;-77
2022/07/24 02:09:54;;;;;;;1999.90;999.90;;;;;;;16.33;82.30;99616.22;8299762;28;20506;-77
2022/07/24 02:13:56;;;;;;;1999.90;999.90;;;;;;;16.29;82.45;99616.31;8300016;28;20083;-77
2022/07/24 02:18:00;;;;;;;1999.90;999.90;;;;;;;16.17;82.91;99612.25;8313960;28;20065;-77
2022/07/24 02:22:02;;;;;;;1999.90;999.90;;;;;;;16.14;82.95;99611.44;8325021;28;20049;-77
2022/07/24 02:26:04;;;;;;;1999.90;999.90;;;;;;;16.09;83.37;99619.41;8309487;28;20465;-77
2022/07/24 02:30:09;;;;;;;1999.90;999.90;;;;;;;16.12;83.41;99621.97;8303556;28;20800;-77
2022/07/24 02:34:11;;;;;;;1999.90;999.90;;;;;;;16.08;83.63;99625.56;8301542;28;20050;-77
2022/07/24 02:38:13;;;;;;;1999.90;999.90;;;;;;;16.02;83.50;99618.72;8299686;28;20111;-77
2022/07/24 02:42:15;;;;;;;1999.90;999.90;;;;;;;15.96;83.56;99631.06;8324518;28;20111;-77
2022/07/24 02:46:16;;;;;;;1999.90;999.90;;;;;;;15.90;84.12;99632.06;8294785;28;20049;-77
2022/07/24 02:50:19;;;;;;;1999.90;999.90;;;;;;;15.86;84.24;99632.19;8312414;28;20385;-77
2022/07/24 02:54:20;;;;;;;1999.90;999.90;;;;;;;15.83;84.52;99633.13;8305960;28;20045;-78
2022/07/24 02:58:22;;;;;;;1999.90;999.90;;;;;;;15.82;84.33;99639.25;8305513;28;20195;-78
2022/07/24 03:02:23;;;;;;;1999.90;999.90;;;;;;;15.76;84.29;99636.75;8304314;28;20071;-77
2022/07/24 03:06:25;;;;;;;1999.90;999.90;;;;;;;15.74;84.47;99635.06;8317660;28;20069;-77
2022/07/24 03:10:26;;;;;;;1999.90;999.90;;;;;;;15.67;84.58;99636.97;8317720;28;20084;-77
2022/07/24 03:14:28;;;;;;;1999.90;999.90;;;;;;;15.61;84.74;99637.06;8306398;28;20471;-77
2022/07/24 03:18:29;;;;;;;1999.90;999.90;;;;;;;15.57;84.80;99630.16;8310771;28;20152;-77
2022/07/24 03:22:31;;;;;;;1999.90;999.90;;;;;;;15.51;85.12;99640.75;8302122;28;20128;-77
2022/07/24 03:26:32;;;;;;;1999.90;999.90;;;;;;;15.45;85.85;99631.28;8301383;28;20839;-77
2022/07/24 03:30:34;;;;;;;1999.90;999.90;;;;;;;15.44;85.77;99626.94;8314270;28;20457;-77
2022/07/24 03:34:35;;;;;;;1999.90;999.90;;;;;;;15.40;85.60;99628.72;8314526;28;20084;-77
2022/07/24 03:38:37;;;;;;;1999.90;999.90;;;;;;;15.34;85.95;99623.63;8317061;28;20789;-77
2022/07/24 03:42:38;;;;;;;1999.90;999.90;;;;;;;15.32;86.07;99627.19;8300792;28;20148;-77
2022/07/24 03:46:40;;;;;;;1999.90;999.90;;;;;;;15.29;86.06;99628.09;8289509;28;20051;-77
2022/07/24 03:50:41;;;;;;;1999.90;999.90;;;;;;;15.24;86.38;99627.31;8316688;28;20049;-77
2022/07/24 03:54:45;;;;;;;1999.90;999.90;;;;;;;15.15;86.22;99626.63;8290721;28;20037;-77
2022/07/24 03:58:46;;;;;;;1999.90;999.90;;;;;;;15.11;86.92;99638.91;8321825;28;20041;-77
2022/07/24 04:02:48;;;;;;;1999.90;999.90;;;;;;;15.13;87.25;99626.66;8292488;28;20533;-77
2022/07/24 04:06:49;;;;;;;1999.90;999.90;;;;;;;15.14;86.82;99638.84;8310898;28;20064;-78
2022/07/24 04:10:56;;;;;;;1999.90;999.90;;;;;;;15.13;86.96;99638.88;8324837;28;20073;-76
2022/07/24 04:14:58;;;;;;;1999.90;999.90;;;;;;;15.05;86.80;99639.00;8284411;28;20038;-77
2022/07/24 04:19:00;;;;;;;1999.90;999.90;;;;;;;14.94;87.49;99641.84;8295508;28;20086;-77
2022/07/24 04:23:07;;;;;;;1999.90;999.90;;;;;;;14.97;88.07;99639.16;8322251;28;20394;-77
2022/07/24 04:27:08;;;;;;;1999.90;999.90;;;;;;;15.02;88.21;99642.56;8303536;28;20103;-77
2022/07/24 04:31:10;;;;;;;1999.90;999.90;;;;;;;15.01;88.09;99646.06;8276543;28;20068;-76
2022/07/24 04:35:12;;;;;;;1999.90;999.90;;;;;;;15.05;88.32;99646.84;8306194;28;20707;-77
2022/07/24 04:39:13;;;;;;;1999.90;999.90;;;;;;;15.16;88.55;99652.75;8327122;28;20076;-78
2022/07/24 04:43:15;;;;;;;1999.90;999.90;;;;;;;15.27;87.52;99656.06;8307567;28;20033;-77
2022/07/24 04:47:17;;;;;;;1999.90;999.90;;;;;;;15.34;87.32;99641.94;8284788;28;20455;-77
2022/07/24 04:51:18;;;;;;;1999.90;999.90;;;;;;;15.46;87.34;99645.22;8318211;28;20128;-77
2022/07/24 04:55:20;;;;;;;1999.90;999.90;;;;;;;15.49;86.89;99643.41;8304305;28;20558;-78
2022/07/24 04:59:21;;;;;;;1999.90;999.90;;;;;;;15.64;86.62;99639.66;8323539;28;20037;-77
2022/07/24 05:03:23;;;;;;;1999.90;999.90;;;;;;;15.78;85.71;99647.19;8317132;28;20425;-77
2022/07/24 05:07:25;;;;;;;1999.90;999.90;;;;;;;15.81;85.74;99652.38;8309024;28;20413;-77
2022/07/24 05:11:26;;;;;;;1999.90;999.90;;;;;;;15.95;85.39;99647.69;8323139;28;20125;-77
2022/07/24 05:15:28;;;;;;;1999.90;999.90;;;;;;;16.09;85.58;99661.34;8295191;28;20367;-77
2022/07/24 05:19:29;;;;;;;1999.90;999.90;;;;;;;16.24;85.20;99655.75;8300447;28;20056;-77
2022/07/24 05:23:31;;;;;;;1999.90;999.90;;;;;;;16.41;84.15;99660.59;8285921;28;20143;-77
2022/07/24 05:27:32;;;;;;;1999.90;999.90;;;;;;;16.61;83.82;99660.97;8280671;28;20065;-77
2022/07/24 05:31:34;;;;;;;1999.90;999.90;;;;;;;16.87;83.72;99657.72;8292209;28;20069;-77
2022/07/24 05:35:41;;;;;;;1999.90;999.90;;;;;;;17.16;82.31;99658.72;8309462;28;20053;-77
2022/07/24 05:39:49;;;;;;;1999.90;999.90;;;;;;;17.42;81.16;99666.75;8306675;28;20053;-77
2022/07/24 05:43:56;;;;;;;1999.90;999.90;;;;;;;17.68;80.68;99665.19;8293443;28;20124;-77
2022/07/24 05:47:57;;;;;;;1999.90;999.90;;;;;;;17.94;79.46;99660.00;8315704;28;20049;-77
2022/07/24 05:51:59;;;;;;;1999.90;999.90;;;;;;;18.30;78.21;99663.28;8322763;28;20589;-77
2022/07/24 05:56:08;;;;;;;1999.90;999.90;;;;;;;18.72;75.70;99654.97;8305364;28;20037;-77
2022/07/24 06:00:10;;;;;;;1999.90;999.90;;;;;;;19.18;74.73;99656.84;8301872;28;20073;-77
2022/07/24 06:04:23;;;;;;;1999.90;999.90;;;;;;;19.73;71.66;99649.59;8328207;28;20474;-82
2022/07/24 06:08:40;;;;;;;1999.90;999.90;;;;;;;20.23;68.98;99645.03;8290729;28;20469;-82
2022/07/24 06:13:17;;;;;;;1999.90;999.90;;;;;;;20.71;67.21;99644.00;8330960;28;20037;-81
2022/07/24 06:18:45;;;;;;;1999.90;999.90;;;;;;;21.49;64.17;99650.34;8307987;28;20068;-82
2022/07/24 06:24:19;;;;;;;1999.90;999.90;;;;;;;22.24;61.21;99656.53;8286570;28;20045;-81
2022/07/24 06:28:57;;;;;;;1999.90;999.90;;;;;;;23.08;59.36;99649.72;8294656;28;20470;-81
2022/07/24 06:33:29;;;;;;;;;;;;;;;23.58;57.63;99648.03;8315755;28;20433;-81
2022/07/24 06:38:09;;;;;;;1999.90;999.90;;;;;;;23.99;56.35;99641.34;8273889;28;19921;-81
2022/07/24 06:42:12;;;;;;;1999.90;999.90;;;;;;;24.53;53.10;99655.13;8306539;28;20061;-81
2022/07/24 06:46:33;;;;;;;1999.90;999.90;;;;;;;25.06;52.65;99648.50;8306189;28;20049;-81
2022/07/24 06:50:53;;;;;;;1999.90;999.90;;;;;;;25.36;50.08;99651.09;8321225;28;20053;-81
2022/07/24 06:55:00;;;;;;;1999.90;999.90;;;;;;;25.60;50.47;99646.06;8277629;28;20072;-81
2022/07/24 06:59:07;;;;;;;1999.90;999.90;;;;;;;25.84;49.42;99649.88;8316302;28;20057;-81
2022/07/24 07:03:57;;;;;;;1999.90;999.90;;;;;;;25.96;47.59;99642.94;8283935;28;20493;-80
2022/07/24 07:08:28;;;;;;;1999.90;999.90;;;;;;;26.10;47.04;99650.91;8316962;28;20119;-80
2022/07/24 07:13:22;;;;;;;1999.90;999.90;;;;;;;26.42;47.58;99648.00;8301143;28;20087;-80
2022/07/24 07:18:05;;;;;;;1999.90;999.90;;;;;;;26.58;45.79;99654.03;8303724;28;20053;-81
2022/07/24 07:22:57;;;;;;;1999.90;999.90;;;;;;;26.78;44.76;99652.69;8271410;28;20045;-81
2022/07/24 07:28:10;;;;;;;1999.90;999.90;;;;;;;26.91;45.57;99648.22;8322050;28;20045;-82
2022/07/24 07:33:10;;;;;;;1999.90;999.90;;;;;;;26.67;43.11;99653.41;8268604;28;20052;-80
2022/07/24 07:37:38;;;;;;;1999.90;999.90;;;;;;;26.91;44.11;99642.91;8215965;28;20069;-81
2022/07/24 07:42:39;;;;;;;1999.90;999.90;;;;;;;27.07;43.14;99646.25;8235991;28;20376;-82
2022/07/24 07:46:41;;;;;;;1999.90;999.90;;;;;;;27.31;43.04;99642.88;8214831;28;20058;-82
2022/07/24 07:50:43;;;;;;;1999.90;999.90;;;;;;;27.35;41.83;99642.56;8249334;28;20058;-82
2022/07/24 07:54:45;;;;;;;1999.90;999.90;;;;;;;27.22;41.25;99649.69;8264073;28;20054;-82
2022/07/24 07:58:46;;;;;;;1999.90;999.90;;;;;;;27.62;41.84;99646.91;8260952;28;20523;-82
2022/07/24 08:08:09;;;;;;;1999.90;999.90;;;;;;;28.06;40.53;99646.44;9485697;23;20051;-82
2022/07/24 08:13:36;;;;;;;1999.90;999.90;;;;;;;28.37;40.59;99639.75;8754482;23;20063;-82
2022/07/24 08:17:42;;;;;;;1999.90;999.90;;;;;;;28.65;39.79;99640.34;8171350;29;20051;-82
2022/07/24 08:30:21;;;;;;;1999.90;999.90;;;;;;;29.40;38.68;99630.97;8138498;29;20055;-78
2022/07/24 08:34:23;;;;;;;1999.90;999.90;;;;;;;29.66;38.19;99628.94;8137385;29;20162;-77
2022/07/24 08:38:24;;;;;;;1999.90;999.90;;;;;;;29.66;36.97;99628.09;8143578;29;20522;-77
2022/07/24 08:42:26;;;;;;;1999.90;999.90;;;;;;;29.81;38.20;99629.56;8141928;29;20051;-78
2022/07/24 08:46:28;;;;;;;1999.90;999.90;;;;;;;29.98;37.53;99620.13;8136104;29;20079;-77
2022/07/24 08:50:32;;;;;;;1999.90;999.90;;;;;;;30.16;35.91;99625.84;8129678;29;20056;-77
2022/07/24 08:54:34;;;;;;;1999.90;999.90;;;;;;;30.25;35.29;99617.94;8162057;29;20070;-77
2022/07/24 08:58:38;;;;;;;1999.90;999.90;;;;;;;30.16;35.04;99626.72;8137880;29;20130;-77
2022/07/24 09:02:39;;;;;;;1999.90;999.90;;;;;;;30.24;34.96;99620.75;8145051;29;20051;-77
2022/07/24 09:06:56;;;;;;;1999.90;999.90;;;;;;;30.36;34.47;99622.41;8157935;29;20540;-77
2022/07/24 09:11:04;;;;;;;1999.90;999.90;;;;;;;30.63;35.41;99625.50;8142316;29;20047;-77
2022/07/24 09:15:14;;;;;;;1999.90;999.90;;;;;;;30.76;35.41;99619.97;8152744;29;20079;-77
2022/07/24 09:19:16;;;;;;;1999.90;999.90;;;;;;;30.92;33.77;99611.47;8148300;29;20428;-77
2022/07/24 09:23:20;;;;;;;1999.90;999.90;;;;;;;30.67;32.27;99605.47;8125688;29;20063;-78
2022/07/24 09:27:22;;;;;;;1999.90;999.90;;;;;;;30.61;33.75;99606.00;8144346;29;20052;-77
2022/07/24 09:31:24;;;;;;;1999.90;999.90;;;;;;;30.56;32.20;99597.47;8137533;29;20146;-77
2022/07/24 09:35:37;;;;;;;1999.90;999.90;;;;;;;30.53;32.44;99608.47;8121002;29;20070;-77
2022/07/24 09:39:40;;;;;;;1999.90;999.90;;;;;;;30.72;32.60;99604.28;8138009;29;20130;-78
2022/07/24 09:43:42;;;;;;;1999.90;999.90;;;;;;;30.80;31.99;99609.81;8116890;29;20055;-77
2022/07/24 09:47:46;;;;;;;1999.90;999.90;;;;;;;30.91;33.65;99602.56;8134762;29;20060;-77
2022/07/24 09:52:17;;;;;;;1999.90;999.90;;;;;;;31.06;31.89;99595.06;8138668;29;20050;-77
2022/07/24 09:56:22;;;;;;;1999.90;999.90;;;;;;;31.14;31.99;99595.22;8156614;29;20074;-77
2022/07/24 10:00:24;;;;;;;1999.90;999.90;;;;;;;31.11;31.55;99584.75;8136486;29;20143;-78
2022/07/24 10:04:26;;;;;;;1999.90;999.90;;;;;;;31.10;32.87;99583.06;8154761;29;20860;-77
2022/07/24 10:08:29;;;;;;;1999.90;999.90;;;;;;;31.26;32.51;99575.41;8157231;29;20126;-78
2022/07/24 10:12:34;;;;;;;1999.90;999.90;;;;;;;31.36;32.37;99575.44;8140356;29;20048;-80
2022/07/24 10:16:42;;;;;;;1999.90;999.90;;;;;;;31.34;32.46;99568.53;8152130;29;20083;-77
2022/07/24 10:21:08;;;;;;;1999.90;999.90;;;;;;;31.45;30.29;99565.75;8152417;29;20632;-77
2022/07/24 10:25:18;;;;;;;1999.90;999.90;;;;;;;31.58;29.87;99566.34;8163270;29;20069;-77
2022/07/24 10:29:24;;;;;;;1999.90;999.90;;;;;;;31.58;31.30;99560.97;8147659;29;20166;-77
2022/07/24 10:33:26;;;;;;;1999.90;999.90;;;;;;;31.57;31.21;99554.75;8149504;29;20158;-77
2022/07/24 10:37:33;;;;;;;1999.90;999.90;;;;;;;31.68;31.64;99551.13;8124968;29;20142;-77
2022/07/24 10:41:34;;;;;;;1999.90;999.90;;;;;;;31.73;30.70;99548.91;8154939;29;20064;-77
2022/07/24 10:45:50;;;;;;;1999.90;999.90;;;;;;;31.67;30.86;99552.13;8136176;29;20039;-78
2022/07/24 10:50:00;;;;;;;1999.90;999.90;;;;;;;31.71;31.10;99539.25;8133095;29;20052;-78
2022/07/24 10:54:17;;;;;;;1999.90;999.90;;;;;;;31.83;29.44;99533.66;8150933;29;20055;-78
2022/07/24 10:58:21;;;;;;;1999.90;999.90;;;;;;;31.92;28.68;99526.59;8154053;29;20072;-77
2022/07/24 11:02:29;;;;;;;1999.90;999.90;;;;;;;31.93;28.55;99520.25;8142523;29;20078;-76
2022/07/24 11:06:43;;;;;;;1999.90;999.90;;;;;;;32.19;29.73;99515.19;8132043;29;20172;-77
2022/07/24 11:10:50;;;;;;;1999.90;999.90;;;;;;;32.42;29.70;99516.63;8145646;29;20059;-76
2022/07/24 11:14:51;;;;;;;1999.90;999.90;;;;;;;32.40;28.85;99504.31;8138242;29;20048;-77
2022/07/24 11:18:53;;;;;;;1999.90;999.90;;;;;;;32.24;27.66;99504.00;8154966;29;20051;-77
2022/07/24 11:22:57;;;;;;;1999.90;999.90;;;;;;;32.27;28.50;99495.69;8130449;29;20047;-77
2022/07/24 11:27:13;;;;;;;1999.90;999.90;;;;;;;32.42;28.84;99489.72;8161736;29;20098;-77
2022/07/24 11:31:16;;;;;;;1999.90;999.90;;;;;;;32.39;27.90;99484.66;8140859;29;20481;-77
2022/07/24 11:35:27;;;;;;;1999.90;999.90;;;;;;;32.50;28.17;99489.03;8136174;29;20060;-78
2022/07/24 11:39:35;;;;;;;1999.90;999.90;;;;;;;32.17;27.52;99479.53;8138531;29;20048;-77
2022/07/24 11:43:49;;;;;;;1999.90;999.90;;;;;;;32.30;28.36;99477.44;8163769;29;20051;-77
2022/07/24 11:47:54;;;;;;;1999.90;999.90;;;;;;;32.52;27.60;99480.81;8133920;29;20067;-77
2022/07/24 11:51:55;;;;;;;1999.90;999.90;;;;;;;32.69;27.83;99470.16;8137564;29;20044;-77
2022/07/24 11:56:06;;;;;;;1999.90;999.90;;;;;;;32.67;26.03;99472.13;8157502;29;20167;-78
2022/07/24 12:00:18;;;;;;;1999.90;999.90;;;;;;;32.51;26.31;99463.00;8145570;29;20544;-78
2022/07/24 12:04:21;;;;;;;1999.90;999.90;;;;;;;32.85;27.05;99457.94;8143504;29;20154;-77
2022/07/24 12:08:26;;;;;;;1999.90;999.90;;;;;;;33.09;27.18;99455.59;8135329;29;20126;-77
2022/07/24 12:12:32;;;;;;;1999.90;999.90;;;;;;;33.33;26.35;99449.69;8135701;29;20075;-77
2022/07/24 12:16:33;;;;;;;1999.90;999.90;;;;;;;33.48;26.36;99442.78;8159505;29;20051;-77
2022/07/24 12:20:43;;;;;;;1999.90;999.90;;;;;;;33.48;26.83;99440.09;8157046;29;20040;-79
2022/07/24 12:24:45;;;;;;;1999.90;999.90;;;;;;;33.30;25.68;99426.59;8146091;29;20135;-79
2022/07/24 12:28:47;;;;;;;1999.90;999.90;;;;;;;33.24;26.41;99419.13;8145234;29;20071;-79
2022/07/24 12:33:13;;;;;;;1999.90;999.90;;;;;;;33.22;27.34;99413.03;8156131;29;20039;-78
2022/07/24 12:37:19;;;;;;;1999.90;999.90;;;;;;;33.41;26.43;99416.66;8111069;29;20052;-80
2022/07/24 12:41:23;;;;;;;1999.90;999.90;;;;;;;33.39;27.04;99399.78;8159226;29;20094;-78
2022/07/24 12:45:24;;;;;;;1999.90;999.90;;;;;;;33.43;26.35;99402.03;8150491;29;20043;-79
2022/07/24 12:49:39;;;;;;;1999.90;999.90;;;;;;;33.27;26.42;99393.75;8156223;29;20052;-79
2022/07/24 12:53:42;;;;;;;1999.90;999.90;;;;;;;33.11;26.22;99393.56;8156918;29;20134;-80
2022/07/24 12:57:44;;;;;;;1999.90;999.90;;;;;;;33.12;26.91;99389.84;8163572;29;20071;-80
2022/07/24 13:01:50;;;;;;;1999.90;999.90;;;;;;;33.21;28.38;99388.94;8143842;29;20797;-79
2022/07/24 13:05:55;;;;;;;1999.90;999.90;;;;;;;33.47;26.82;99383.72;8162392;29;20054;-78
2022/07/24 13:09:57;;;;;;;1999.90;999.90;;;;;;;33.76;27.27;99372.72;8138218;29;20052;-79
2022/07/24 13:13:58;;;;;;;1999.90;999.90;;;;;;;33.79;26.09;99375.94;8136070;29;20055;-79
2022/07/24 13:18:07;;;;;;;1999.90;999.90;;;;;;;33.70;26.80;99373.31;8119840;29;20059;-79
2022/07/24 13:22:10;;;;;;;1999.90;999.90;;;;;;;33.79;27.12;99350.84;8131049;29;20068;-79
2022/07/24 13:26:12;;;;;;;1999.90;999.90;;;;;;;33.83;27.70;99345.00;8130078;29;20111;-80
2022/07/24 13:30:14;;;;;;;1999.90;999.90;;;;;;;33.86;27.70;99341.16;8114697;29;20058;-79
2022/07/24 13:34:17;;;;;;;1999.90;999.90;;;;;;;33.84;27.27;99335.94;8146632;29;20063;-80
2022/07/24 13:38:19;;;;;;;1999.90;999.90;;;;;;;33.80;26.17;99328.28;8140860;29;20047;-79
2022/07/24 13:42:21;;;;;;;1999.90;999.90;;;;;;;33.74;25.75;99318.97;8150092;29;20044;-80
2022/07/24 13:46:23;;;;;;;1999.90;999.90;;;;;;;33.73;25.70;99319.13;8143680;29;20047;-80
2022/07/24 13:50:25;;;;;;;1999.90;999.90;;;;;;;33.47;25.72;99305.63;8127403;29;20131;-80
2022/07/24 13:54:27;;;;;;;1999.90;999.90;;;;;;;33.64;27.25;99297.53;8136359;29;20043;-80
2022/07/24 13:58:29;;;;;;;1999.90;999.90;;;;;;;33.72;26.69;99296.72;8150402;29;20102;-80
2022/07/24 14:02:30;;;;;;;1999.90;999.90;;;;;;;33.83;27.54;99283.03;8166882;29;20059;-79
2022/07/24 14:06:34;;;;;;;1999.90;999.90;;;;;;;34.00;27.70;99275.94;8125402;29;20047;-80
2022/07/24 14:10:35;;;;;;;1999.90;999.90;;;;;;;34.12;26.94;99265.72;8132787;29;20458;-79
2022/07/24 14:14:37;;;;;;;1999.90;999.90;;;;;;;34.11;26.30;99264.00;8153511;29;20086;-78
2022/07/24 14:18:39;;;;;;;1999.90;999.90;;;;;;;33.99;26.10;99263.47;8130539;29;20172;-79
2022/07/24 14:22:42;;;;;;;1999.90;999.90;;;;;;;34.01;25.66;99263.28;8134480;29;20058;-79
2022/07/24 14:26:44;;;;;;;1999.90;999.90;;;;;;;33.86;25.51;99247.72;8162283;29;20564;-79
2022/07/24 14:30:46;;;;;;;1999.90;999.90;;;;;;;34.16;27.19;99243.69;8144070;29;20051;-79
2022/07/24 14:34:48;;;;;;;1999.90;999.90;;;;;;;34.00;25.19;99237.34;8149785;29;20396;-79
2022/07/24 14:38:50;;;;;;;1999.90;999.90;;;;;;;33.90;25.49;99221.28;8127437;29;20036;-78
2022/07/24 14:42:52;;;;;;;1999.90;999.90;;;;;;;33.94;25.20;99222.69;8159722;29;20086;-78
2022/07/24 14:46:54;;;;;;;1999.90;999.90;;;;;;;34.03;26.18;99226.25;8140925;29;20540;-78
2022/07/24 14:50:55;;;;;;;1999.90;999.90;;;;;;;34.14;25.07;99223.28;8157584;29;20060;-79
2022/07/24 14:54:59;;;;;;;1999.90;999.90;;;;;;;33.92;25.44;99220.13;8143094;29;20067;-78
2022/07/24 14:59:01;;;;;;;1999.90;999.90;;;;;;;33.98;26.17;99213.25;8148550;29;20098;-78
2022/07/24 15:03:02;;;;;;;1999.90;999.90;;;;;;;34.15;26.65;99209.66;8133777;29;20059;-79
2022/07/24 15:07:04;;;;;;;1999.90;999.90;;;;;;;34.18;25.87;99209.31;8133402;29;20461;-78
2022/07/24 15:11:05;;;;;;;1999.90;999.90;;;;;;;34.24;25.65;99202.41;8139055;29;20453;-79
2022/07/24 15:15:08;;;;;;;1999.90;999.90;;;;;;;34.26;24.09;99195.00;8144737;29;20051;-80
2022/07/24 15:19:11;;;;;;;1999.90;999.90;;;;;;;34.14;25.00;99196.34;8148364;29;20377;-79
2022/07/24 15:23:12;;;;;;;1999.90;999.90;;;;;;;34.29;25.73;99180.34;8135190;29;20124;-79
2022/07/24 15:27:14;;;;;;;1999.90;999.90;;;;;;;34.52;26.13;99184.19;8133973;29;20091;-79
2022/07/24 15:31:19;;;;;;;1999.90;999.90;;;;;;;34.45;24.15;99170.50;8129018;29;20145;-79
2022/07/24 15:35:22;;;;;;;1999.90;999.90;;;;;;;34.39;24.32;99167.63;8153455;29;20059;-79
2022/07/24 15:39:26;;;;;;;1999.90;999.90;;;;;;;34.39;24.70;99157.69;8133024;29;20110;-79
2022/07/24 15:43:28;;;;;;;1999.90;999.90;;;;;;;34.59;25.55;99160.94;8149177;29;20118;-79
2022/07/24 15:47:31;;;;;;;1999.90;999.90;;;;;;;34.63;24.35;99151.50;8138412;29;20362;-79
2022/07/24 15:51:43;;;;;;;1999.90;999.90;;;;;;;34.50;24.73;99154.69;8159956;29;20056;-79
2022/07/24 15:55:52;;;;;;;1999.90;999.90;;;;;;;34.59;24.22;99144.75;8159049;29;20131;-79
2022/07/24 15:59:55;;;;;;;1999.90;999.90;;;;;;;34.71;24.61;99148.81;8151026;29;20070;-79
2022/07/24 16:03:57;;;;;;;1999.90;999.90;;;;;;;34.83;25.33;99142.09;8139816;29;20063;-79
2022/07/24 16:07:59;;;;;;;1999.90;999.90;;;;;;;35.01;25.38;99141.97;8152964;29;20050;-79
2022/07/24 16:12:02;;;;;;;1999.90;999.90;;;;;;;35.02;24.92;99135.56;8142030;29;20912;-78
2022/07/24 16:16:04;;;;;;;1999.90;999.90;;;;;;;35.04;23.98;99136.22;8133152;29;20146;-79
2022/07/24 16:20:10;;;;;;;1999.90;999.90;;;;;;;35.12;25.18;99122.72;8153630;29;20392;-79
2022/07/24 16:24:12;;;;;;;1999.90;999.90;;;;;;;35.16;25.12;99128.59;8122898;29;20050;-79
2022/07/24 16:28:18;;;;;;;1999.90;999.90;;;;;;;35.01;24.50;99114.97;8146750;29;20051;-79
2022/07/24 16:32:20;;;;;;;1999.90;999.90;;;;;;;34.74;23.78;99110.72;8150759;29;20166;-80
2022/07/24 16:36:21;;;;;;;1999.90;999.90;;;;;;;34.25;25.07;99113.28;8157531;29;20048;-80
2022/07/24 16:40:24;;;;;;;1999.90;999.90;;;;;;;33.68;25.78;99109.50;8138971;29;20044;-81
2022/07/24 16:44:26;;;;;;;1999.90;999.90;;;;;;;33.14;25.85;99107.97;8140335;29;20778;-80
2022/07/24 16:48:27;;;;;;;1999.90;999.90;;;;;;;32.72;26.66;99100.56;8137837;29;20053;-79
2022/07/24 16:52:29;;;;;;;1999.90;999.90;;;;;;;32.40;28.48;99101.94;8135802;29;20059;-80
2022/07/24 16:56:50;;;;;;;1999.90;999.90;;;;;;;31.97;26.55;99096.41;8137607;29;20450;-79
2022/07/24 17:00:52;;;;;;;1999.90;999.90;;;;;;;31.75;27.89;99094.94;8135578;29;20044;-79
2022/07/24 17:04:54;;;;;;;1999.90;999.90;;;;;;;31.52;29.81;99100.66;8142685;29;20035;-79
2022/07/24 17:08:57;;;;;;;1999.90;999.90;;;;;;;31.29;29.61;99090.44;8159066;29;20069;-79
2022/07/24 17:12:59;;;;;;;1999.90;999.90;;;;;;;31.09;29.25;99092.28;8149848;29;20055;-79
2022/07/24 17:17:00;;;;;;;1999.90;999.90;;;;;;;30.89;30.55;99088.78;8147907;29;20059;-79
2022/07/24 17:21:02;;;;;;;1999.90;999.90;;;;;;;30.62;32.51;99089.50;8159523;29;20099;-78
2022/07/24 17:25:04;;;;;;;1999.90;999.90;;;;;;;30.51;30.61;99089.59;8151977;29;21772;-79
2022/07/24 17:29:25;;;;;;;1999.90;999.90;;;;;;;30.37;29.95;99086.38;8123186;29;20083;-79
2022/07/24 17:33:26;;;;;;;1999.90;999.90;;;;;;;30.33;30.15;99086.78;8143361;29;20079;-78
2022/07/24 17:37:28;;;;;;;1999.90;999.90;;;;;;;30.16;32.09;99090.97;8128429;29;20147;-78
2022/07/24 17:41:30;;;;;;;1999.90;999.90;;;;;;;29.96;30.92;99089.22;8121946;29;20047;-78
2022/07/24 17:45:32;;;;;;;1999.90;999.90;;;;;;;29.84;30.96;99083.13;8163788;29;20067;-79
2022/07/24 17:49:33;;;;;;;1999.90;999.90;;;;;;;29.73;31.82;99083.22;8142022;29;20513;-78
2022/07/24 17:53:35;;;;;;;1999.90;999.90;;;;;;;29.46;34.34;99090.03;8155602;29;20046;-78
2022/07/24 17:57:38;;;;;;;1999.90;999.90;;;;;;;29.09;35.29;99078.13;8118112;29;20436;-78
2022/07/24 18:01:40;;;;;;;1999.90;999.90;;;;;;;28.91;35.76;99082.38;8128934;29;20835;-79
2022/07/24 18:05:41;;;;;;;1999.90;999.90;;;;;;;28.72;36.15;99078.50;8133702;29;20107;-79
2022/07/24 18:09:43;;;;;;;1999.90;999.90;;;;;;;28.58;36.32;99070.84;8135105;29;20067;-78
2022/07/24 18:13:45;;;;;;;1999.90;999.90;;;;;;;28.36;37.53;99070.91;8131856;29;20043;-78
2022/07/24 18:17:47;;;;;;;1999.90;999.90;;;;;;;27.98;39.00;99070.38;8158595;29;20051;-78
2022/07/24 18:21:48;;;;;;;;;;;;;;;27.63;39.29;99067.88;8132024;29;20127;-77
2022/07/24 18:25:50;;;;;;;1999.90;999.90;;;;;;;27.45;39.84;99065.78;8135283;29;19965;-77
2022/07/24 18:29:51;;;;;;;;;;;;;;;27.23;40.57;99062.16;8150767;29;20496;-77